Time;durP1;ratioP1;P1;durP2;ratioP2;P2;SDS_P1;SDS_P2;PMS_P1;PMS_P2;Temp;Humidity;BMP_temperature;BMP_pressure;BME280_temperature;BME280_humidity;BME280_pressure;Samples;Min_cycle;Max_cycle;Signal;HPM_P1;HPM_P2
2023/09/07 00:00:05;;;;;;;6.73;5.90;;;18.90;99.90;;;;;;5235264;28;20631;-45
2023/09/07 00:02:35;;;;;;;6.60;5.97;;;18.80;99.90;;;;;;5245407;28;20940;-46
2023/09/07 00:05:07;;;;;;;9.00;5.90;;;18.80;99.90;;;;;;5248474;28;20432;-46
2023/09/07 00:07:37;;;;;;;8.13;5.93;;;18.80;99.90;;;;;;5235891;28;20651;-46
2023/09/07 00:10:08;;;;;;;7.63;6.03;;;18.70;99.90;;;;;;5249316;28;20521;-45
2023/09/07 00:12:39;;;;;;;6.10;5.63;;;18.70;99.90;;;;;;5218038;28;20224;-46
2023/09/07 00:15:10;;;;;;;6.17;5.67;;;18.70;99.90;;;;;;5239550;28;20274;-46
2023/09/07 00:17:41;;;;;;;6.00;5.40;;;18.70;99.90;;;;;;5243552;28;20186;-46
2023/09/07 00:20:13;;;;;;;5.63;5.13;;;18.70;99.90;;;;;;5240313;28;20468;-45
2023/09/07 00:22:44;;;;;;;6.80;5.63;;;18.70;99.90;;;;;;5243113;28;20718;-46
2023/09/07 00:25:14;;;;;;;6.40;5.80;;;18.70;99.90;;;;;;5239025;28;20549;-46
2023/09/07 00:27:45;;;;;;;6.70;6.10;;;18.70;99.90;;;;;;5247288;28;20659;-44
2023/09/07 00:30:16;;;;;;;12.93;5.87;;;18.70;99.90;;;;;;5243349;28;20195;-44
2023/09/07 00:32:46;;;;;;;7.50;5.97;;;18.80;99.90;;;;;;5249129;28;20297;-47
2023/09/07 00:35:17;;;;;;;8.83;6.20;;;18.80;99.90;;;;;;5239833;28;20559;-44
2023/09/07 00:37:47;;;;;;;5.87;5.30;;;18.80;99.90;;;;;;5239828;28;20183;-45
2023/09/07 00:40:18;;;;;;;6.30;5.80;;;18.80;99.90;;;;;;5232441;28;20269;-44
2023/09/07 00:42:49;;;;;;;7.07;6.37;;;18.80;99.90;;;;;;5239142;28;20295;-45
2023/09/07 00:45:20;;;;;;;5.70;5.20;;;18.70;99.90;;;;;;5244819;28;20190;-45
2023/09/07 00:47:50;;;;;;;7.00;5.87;;;18.70;99.90;;;;;;5250483;28;20182;-45
2023/09/07 00:50:21;;;;;;;5.50;5.10;;;18.70;99.90;;;;;;5237885;28;20190;-45
2023/09/07 00:52:52;;;;;;;7.53;6.10;;;18.60;99.90;;;;;;5238981;28;20199;-44
2023/09/07 00:55:22;;;;;;;6.40;5.80;;;18.60;99.90;;;;;;5237845;28;20191;-44
2023/09/07 00:57:55;;;;;;;9.80;5.93;;;18.60;99.90;;;;;;5240561;28;20243;-44
2023/09/07 01:00:26;;;;;;;8.07;5.93;;;18.50;99.90;;;;;;5243874;28;20183;-44
2023/09/07 01:02:57;;;;;;;6.63;6.00;;;18.50;99.90;;;;;;5245133;28;20581;-44
2023/09/07 01:05:35;;;;;;;6.10;5.63;;;18.40;99.90;;;;;;5259076;28;20179;-46
2023/09/07 01:08:14;;;;;;;7.80;5.80;;;18.40;99.90;;;;;;5240892;28;20521;-44
2023/09/07 01:10:45;;;;;;;6.43;5.80;;;18.30;99.90;;;;;;5242857;28;20447;-44
2023/09/07 01:13:19;;;;;;;10.67;6.10;;;18.20;99.90;;;;;;5248452;28;20485;-45
2023/09/07 01:15:50;;;;;;;7.53;6.10;;;18.20;99.90;;;;;;5243789;28;20440;-44
2023/09/07 01:18:22;;;;;;;6.63;6.00;;;18.10;99.90;;;;;;5230527;28;20454;-44
2023/09/07 01:20:54;;;;;;;5.70;5.30;;;18.10;99.90;;;;;;5235307;28;20433;-45
2023/09/07 01:23:25;;;;;;;7.50;6.10;;;18.10;99.90;;;;;;5249527;28;20429;-44
2023/09/07 01:25:56;;;;;;;6.77;6.07;;;18.10;99.90;;;;;;5250223;28;20951;-45
2023/09/07 01:28:26;;;;;;;7.80;6.37;;;18.00;99.90;;;;;;5248456;28;20202;-45
2023/09/07 01:30:57;;;;;;;7.83;6.40;;;18.00;99.90;;;;;;5238257;28;20436;-44
2023/09/07 01:33:28;;;;;;;8.70;6.10;;;18.00;99.90;;;;;;5238379;28;20380;-44
2023/09/07 01:35:59;;;;;;;8.10;6.00;;;17.90;99.90;;;;;;5251429;28;20459;-47
2023/09/07 01:38:30;;;;;;;8.27;6.27;;;17.90;99.90;;;;;;5241777;28;20293;-45
2023/09/07 01:41:00;;;;;;;8.37;6.80;;;17.90;99.90;;;;;;5245319;28;20179;-44
2023/09/07 01:43:31;;;;;;;5.73;5.10;;;17.80;99.90;;;;;;5239678;28;20274;-44
2023/09/07 01:46:02;;;;;;;11.97;7.00;;;17.80;99.90;;;;;;5238809;28;20179;-44
2023/09/07 01:48:32;;;;;;;10.40;6.47;;;17.80;99.90;;;;;;5231363;28;20199;-44
2023/09/07 01:51:03;;;;;;;9.97;6.40;;;17.70;99.90;;;;;;5248388;28;20191;-44
2023/09/07 01:53:33;;;;;;;6.43;5.83;;;17.70;99.90;;;;;;5235327;28;20202;-44
2023/09/07 01:56:04;;;;;;;7.00;6.40;;;17.70;99.90;;;;;;5239552;28;20621;-44
2023/09/07 01:58:36;;;;;;;6.60;5.67;;;17.70;99.90;;;;;;5246865;28;20210;-44
2023/09/07 02:01:07;;;;;;;7.23;5.80;;;17.60;99.90;;;;;;5240271;28;20665;-43
2023/09/07 02:03:37;;;;;;;8.00;5.90;;;17.60;99.90;;;;;;5240437;28;20452;-44
2023/09/07 02:06:08;;;;;;;5.87;5.47;;;17.60;99.90;;;;;;5244808;28;20186;-44
2023/09/07 02:08:39;;;;;;;8.50;5.70;;;17.60;99.90;;;;;;5244412;28;20213;-44
2023/09/07 02:11:09;;;;;;;12.40;6.50;;;17.60;99.90;;;;;;5235769;28;20187;-44
2023/09/07 02:13:46;;;;;;;20.97;6.50;;;17.60;99.90;;;;;;5239731;28;20583;-44
2023/09/07 02:16:18;;;;;;;6.80;6.13;;;17.50;99.90;;;;;;5231523;28;20174;-45
2023/09/07 02:18:50;;;;;;;7.30;6.23;;;17.50;99.90;;;;;;5232859;28;20492;-45
2023/09/07 02:21:20;;;;;;;8.70;6.13;;;17.50;99.90;;;;;;5213841;22;20490;-47
2023/09/07 02:23:51;;;;;;;6.90;6.23;;;17.50;99.90;;;;;;5206853;28;20456;-47
2023/09/07 02:26:22;;;;;;;10.27;5.50;;;17.40;99.90;;;;;;5204959;28;20230;-48
2023/09/07 02:28:52;;;;;;;6.43;5.80;;;17.40;99.90;;;;;;5201623;28;20215;-47
2023/09/07 02:31:23;;;;;;;7.03;5.93;;;17.40;99.90;;;;;;5204225;28;20241;-49
2023/09/07 02:33:54;;;;;;;5.93;5.40;;;17.40;99.90;;;;;;5206370;28;20183;-47
2023/09/07 02:36:24;;;;;;;7.00;6.30;;;17.40;99.90;;;;;;5204838;28;20186;-48
2023/09/07 02:38:55;;;;;;;6.97;5.67;;;17.40;99.90;;;;;;5206478;28;20175;-47
2023/09/07 02:41:48;;;;;;;10.30;6.63;;;17.40;99.90;;;;;;5196250;28;20262;-49
2023/09/07 02:44:19;;;;;;;6.37;5.77;;;17.30;99.90;;;;;;5202945;28;20213;-47
2023/09/07 02:46:50;;;;;;;8.10;6.13;;;17.30;99.90;;;;;;5208405;28;20529;-47
2023/09/07 02:49:20;;;;;;;8.03;6.23;;;17.30;99.90;;;;;;5205862;28;20180;-46
2023/09/07 02:51:51;;;;;;;5.87;5.23;;;17.30;99.90;;;;;;5203440;28;20553;-47
2023/09/07 02:54:23;;;;;;;7.30;5.63;;;17.30;99.90;;;;;;5204029;28;20628;-48
2023/09/07 02:56:54;;;;;;;10.70;5.87;;;17.20;99.90;;;;;;5206990;28;20187;-47
2023/09/07 02:59:25;;;;;;;6.43;5.80;;;17.20;99.90;;;;;;5206995;28;20821;-46
2023/09/07 03:01:56;;;;;;;6.97;5.70;;;17.20;99.90;;;;;;5207871;28;20202;-47
2023/09/07 03:04:26;;;;;;;5.83;5.33;;;17.20;99.90;;;;;;5203333;28;20918;-48
2023/09/07 03:06:57;;;;;;;7.23;6.53;;;17.20;99.90;;;;;;5206819;28;20187;-47
2023/09/07 03:09:28;;;;;;;8.70;6.90;;;17.10;99.90;;;;;;5206584;28;20214;-48
2023/09/07 03:11:58;;;;;;;7.97;6.40;;;17.10;99.90;;;;;;5202941;28;20288;-48
2023/09/07 03:14:29;;;;;;;10.40;6.33;;;17.10;99.90;;;;;;5200977;28;20184;-47
2023/09/07 03:17:00;;;;;;;7.37;5.90;;;17.10;99.90;;;;;;5204000;28;20661;-47
2023/09/07 03:19:30;;;;;;;5.13;4.73;;;17.00;99.90;;;;;;5203537;28;20204;-47
2023/09/07 03:22:01;;;;;;;6.53;5.93;;;17.00;99.90;;;;;;5208646;28;20199;-47
2023/09/07 03:24:31;;;;;;;6.83;6.13;;;17.00;99.90;;;;;;5210370;28;20183;-48
2023/09/07 03:27:02;;;;;;;7.70;6.23;;;17.00;99.90;;;;;;5213227;28;20195;-47
2023/09/07 03:29:35;;;;;;;8.40;7.33;;;17.00;99.90;;;;;;5208667;28;20262;-47
2023/09/07 03:32:06;;;;;;;6.77;6.07;;;17.00;99.90;;;;;;5207621;28;20541;-48
2023/09/07 03:34:36;;;;;;;7.73;6.13;;;17.00;99.90;;;;;;5208540;28;20472;-47
2023/09/07 03:37:11;;;;;;;6.33;5.70;;;17.00;99.90;;;;;;5207057;28;20168;-47
2023/09/07 03:39:42;;;;;;;7.73;6.10;;;17.00;99.90;;;;;;5205421;28;20611;-47
2023/09/07 03:42:12;;;;;;;9.43;7.70;;;17.00;99.90;;;;;;5205673;28;20539;-47
2023/09/07 03:44:43;;;;;;;7.17;6.17;;;17.00;99.90;;;;;;5208535;28;20183;-47
2023/09/07 03:47:15;;;;;;;10.37;6.27;;;17.00;99.90;;;;;;5205805;28;20188;-48
2023/09/07 03:49:45;;;;;;;7.63;6.93;;;17.00;99.90;;;;;;5208591;28;20263;-46
2023/09/07 03:52:16;;;;;;;7.30;6.60;;;17.00;99.90;;;;;;5213420;28;20478;-48
2023/09/07 03:54:47;;;;;;;11.00;8.17;;;17.00;99.90;;;;;;5222375;28;20193;-48
2023/09/07 03:57:19;;;;;;;7.30;6.60;;;16.90;99.90;;;;;;5206841;28;20545;-48
2023/09/07 03:59:50;;;;;;;12.93;7.03;;;16.90;99.90;;;;;;5207637;28;20592;-47
2023/09/07 04:02:21;;;;;;;8.60;7.37;;;16.90;99.90;;;;;;5206652;28;20426;-47
2023/09/07 04:04:53;;;;;;;7.93;7.23;;;16.90;99.90;;;;;;5208548;28;20179;-47
2023/09/07 04:07:24;;;;;;;13.43;8.20;;;16.90;99.90;;;;;;5211397;28;20180;-47
2023/09/07 04:09:54;;;;;;;8.30;6.50;;;16.90;99.90;;;;;;5199061;28;20954;-46
2023/09/07 04:12:26;;;;;;;6.93;6.33;;;16.90;99.90;;;;;;5204196;28;20333;-50
2023/09/07 04:14:56;;;;;;;10.03;6.80;;;16.90;99.90;;;;;;5212957;28;20191;-47
2023/09/07 04:17:27;;;;;;;8.00;7.20;;;16.90;99.90;;;;;;5200401;28;20438;-47
2023/09/07 04:19:57;;;;;;;8.00;6.70;;;16.90;99.90;;;;;;5214015;28;20595;-48
2023/09/07 04:22:28;;;;;;;7.27;6.53;;;16.90;99.90;;;;;;5206242;28;20187;-48
2023/09/07 04:24:59;;;;;;;7.73;6.87;;;16.90;99.90;;;;;;5203286;28;20188;-49
2023/09/07 04:27:31;;;;;;;11.10;7.50;;;16.90;99.90;;;;;;5204326;28;20184;-49
2023/09/07 04:30:02;;;;;;;16.20;7.43;;;16.90;99.90;;;;;;5208762;28;20215;-49
2023/09/07 04:32:32;;;;;;;10.00;8.03;;;16.90;99.90;;;;;;5211310;28;20462;-46
2023/09/07 04:35:03;;;;;;;16.00;7.63;;;16.90;99.90;;;;;;5207773;28;20442;-46
2023/09/07 04:37:34;;;;;;;11.50;7.50;;;16.90;99.90;;;;;;5206540;28;20202;-47
2023/09/07 04:40:06;;;;;;;9.97;8.50;;;16.90;99.90;;;;;;5206192;28;20202;-47
2023/09/07 04:42:40;;;;;;;9.43;6.60;;;16.90;99.90;;;;;;5205810;28;20196;-46
2023/09/07 04:45:11;;;;;;;10.60;7.03;;;16.90;99.90;;;;;;5207327;28;20442;-46
2023/09/07 04:47:41;;;;;;;8.17;7.10;;;16.90;99.90;;;;;;5199866;28;20535;-48
2023/09/07 04:50:13;;;;;;;10.37;7.50;;;17.00;99.90;;;;;;5204076;28;20298;-49
2023/09/07 04:52:43;;;;;;;7.50;6.80;;;17.00;99.90;;;;;;5197211;28;20204;-47
2023/09/07 04:55:14;;;;;;;7.67;6.90;;;17.00;99.90;;;;;;5204437;28;20442;-47
2023/09/07 04:57:45;;;;;;;7.30;6.60;;;17.00;99.90;;;;;;5196526;28;20184;-48
2023/09/07 05:00:16;;;;;;;9.27;8.00;;;17.10;99.90;;;;;;5206457;28;20203;-46
2023/09/07 05:02:47;;;;;;;7.13;6.47;;;17.10;99.90;;;;;;5208291;28;20184;-47
2023/09/07 05:05:17;;;;;;;12.30;6.90;;;17.10;99.90;;;;;;5207182;28;20198;-47
2023/09/07 05:07:48;;;;;;;10.53;6.40;;;17.20;99.90;;;;;;5198350;28;20196;-47
2023/09/07 05:10:19;;;;;;;6.73;6.13;;;17.20;99.90;;;;;;5182132;28;21146;-47
2023/09/07 05:12:51;;;;;;;12.33;7.63;;;17.20;99.90;;;;;;5198889;28;20462;-47
2023/09/07 05:15:22;;;;;;;9.60;8.10;;;17.30;99.90;;;;;;5186101;28;20434;-47
2023/09/07 05:17:54;;;;;;;8.93;7.00;;;17.40;99.90;;;;;;5205092;28;20441;-47
2023/09/07 05:20:24;;;;;;;12.90;7.53;;;17.40;99.90;;;;;;5206493;28;20212;-47
2023/09/07 05:22:56;;;;;;;9.73;7.47;;;17.40;99.90;;;;;;5200519;28;20926;-48
2023/09/07 05:25:27;;;;;;;9.90;7.67;;;17.50;99.90;;;;;;5203119;28;20218;-48
2023/09/07 05:28:05;;;;;;;20.17;8.37;;;17.50;99.90;;;;;;5193430;28;20482;-49
2023/09/07 05:30:35;;;;;;;8.63;7.13;;;17.60;99.90;;;;;;5192588;28;20207;-48
2023/09/07 05:33:06;;;;;;;10.97;8.53;;;17.60;99.90;;;;;;5208832;28;20469;-47
2023/09/07 05:35:38;;;;;;;13.53;7.90;;;17.60;99.90;;;;;;5203168;28;20826;-48
2023/09/07 05:38:09;;;;;;;10.80;7.73;;;17.70;99.90;;;;;;5220629;28;20550;-48
2023/09/07 05:40:41;;;;;;;9.67;7.50;;;17.80;99.90;;;;;;5194234;28;20470;-47
2023/09/07 05:43:12;;;;;;;14.13;8.50;;;17.90;99.90;;;;;;5205970;28;20506;-47
2023/09/07 05:45:43;;;;;;;9.43;7.30;;;17.90;99.90;;;;;;5205733;28;20542;-48
2023/09/07 05:48:16;;;;;;;11.33;7.30;;;18.00;99.90;;;;;;5205582;28;20188;-47
2023/09/07 05:50:50;;;;;;;10.57;6.50;;;18.10;99.90;;;;;;5199971;28;20203;-47
2023/09/07 05:53:20;;;;;;;8.57;7.43;;;18.40;99.90;;;;;;5220687;28;20542;-48
2023/09/07 05:55:51;;;;;;;7.67;6.70;;;18.90;99.90;;;;;;5196006;28;20469;-48
2023/09/07 05:58:22;;;;;;;11.90;6.70;;;19.90;99.90;;;;;;5209005;28;20230;-47
2023/09/07 06:00:53;;;;;;;7.30;5.67;;;21.90;99.90;;;;;;5208919;28;20446;-47
2023/09/07 06:03:24;;;;;;;7.57;5.70;;;24.10;99.90;;;;;;5208284;28;20592;-47
2023/09/07 06:05:55;;;;;;;24.53;6.80;;;26.00;96.80;;;;;;5206273;28;20533;-48
2023/09/07 06:08:26;;;;;;;6.90;5.33;;;27.70;87.70;;;;;;5206546;28;20183;-51
2023/09/07 06:10:56;;;;;;;6.90;5.30;;;28.80;73.30;;;;;;5202766;28;21021;-49
2023/09/07 06:13:27;;;;;;;8.23;5.43;;;29.60;66.10;;;;;;5184194;28;20705;-48
2023/09/07 06:16:00;;;;;;;11.70;5.83;;;30.40;60.30;;;;;;5189190;28;20226;-49
2023/09/07 06:18:31;;;;;;;7.57;6.07;;;30.80;57.20;;;;;;5186041;28;20239;-50
2023/09/07 06:21:02;;;;;;;8.60;4.90;;;31.20;54.50;;;;;;5200466;28;20474;-49
2023/09/07 06:23:32;;;;;;;7.93;5.13;;;31.40;52.60;;;;;;5199085;28;20183;-48
2023/09/07 06:26:03;;;;;;;10.40;5.37;;;31.50;52.40;;;;;;5198563;28;20453;-48
2023/09/07 06:28:34;;;;;;;7.80;4.70;;;31.70;50.50;;;;;;5204798;28;20213;-49
2023/09/07 06:31:04;;;;;;;15.23;5.17;;;32.20;49.20;;;;;;5201157;28;20211;-49
2023/09/07 06:33:35;;;;;;;5.17;4.77;;;32.40;48.00;;;;;;5205648;28;20293;-49
2023/09/07 06:36:06;;;;;;;5.10;4.60;;;32.30;47.90;;;;;;5209140;28;20192;-49
2023/09/07 06:38:37;;;;;;;6.23;5.03;;;32.60;46.70;;;;;;5193286;28;20191;-50
2023/09/07 06:41:09;;;;;;;7.93;4.80;;;32.30;46.40;;;;;;5200907;28;20289;-48
2023/09/07 06:43:40;;;;;;;6.20;5.57;;;32.20;46.70;;;;;;5201878;28;20226;-49
2023/09/07 06:46:11;;;;;;;11.00;5.53;;;33.00;45.60;;;;;;5202275;28;20446;-49
2023/09/07 06:48:42;;;;;;;11.17;5.33;;;33.50;44.70;;;;;;5205022;28;20440;-50
2023/09/07 06:51:12;;;;;;;12.67;4.97;;;33.90;43.70;;;;;;5192989;28;20281;-50
2023/09/07 06:53:43;;;;;;;9.03;5.13;;;34.30;42.40;;;;;;5193525;28;20298;-49
2023/09/07 06:56:14;;;;;;;7.20;5.03;;;34.30;42.00;;;;;;5192345;28;20191;-51
2023/09/07 06:58:44;;;;;;;12.80;5.83;;;34.40;40.90;;;;;;5203485;28;20234;-50
2023/09/07 07:01:16;;;;;;;8.47;5.10;;;34.30;41.60;;;;;;5206257;28;20610;-49
2023/09/07 07:03:47;;;;;;;11.00;5.20;;;34.10;40.50;;;;;;5193001;28;20185;-48
2023/09/07 07:06:17;;;;;;;9.20;5.60;;;33.90;40.60;;;;;;5203597;28;21135;-50
2023/09/07 07:08:48;;;;;;;11.00;5.17;;;33.60;41.00;;;;;;5207213;28;20188;-49
2023/09/07 07:11:19;;;;;;;9.70;4.30;;;33.50;41.30;;;;;;5212079;28;20313;-49
2023/09/07 07:13:50;;;;;;;19.63;5.30;;;33.80;40.40;;;;;;5211054;28;20233;-48
2023/09/07 07:16:21;;;;;;;8.53;5.10;;;33.80;40.70;;;;;;5210016;28;20836;-49
2023/09/07 07:18:52;;;;;;;13.80;5.27;;;34.00;39.80;;;;;;5212225;28;20183;-49
2023/09/07 07:21:22;;;;;;;4.93;4.50;;;33.10;40.30;;;;;;5212772;28;20217;-49
2023/09/07 07:23:53;;;;;;;5.20;4.00;;;33.20;40.90;;;;;;5214129;28;20194;-51
2023/09/07 07:26:23;;;;;;;12.13;4.47;;;34.00;40.10;;;;;;5211150;28;20196;-50
2023/09/07 07:28:54;;;;;;;7.10;4.87;;;34.70;38.50;;;;;;5206912;28;20635;-49
2023/09/07 07:31:25;;;;;;;9.97;4.50;;;34.70;38.40;;;;;;5209405;28;20199;-49
2023/09/07 07:33:56;;;;;;;8.50;4.90;;;34.80;38.40;;;;;;5217897;28;20186;-49
2023/09/07 07:36:26;;;;;;;11.97;4.67;;;34.70;38.50;;;;;;5186549;28;20735;-50
2023/09/07 07:38:57;;;;;;;6.30;3.90;;;35.00;38.10;;;;;;5204405;28;20437;-49
2023/09/07 07:41:28;;;;;;;13.17;4.53;;;35.80;37.40;;;;;;5213403;28;20231;-51
2023/09/07 07:43:58;;;;;;;7.27;4.33;;;36.40;35.80;;;;;;5217426;28;20190;-49
2023/09/07 07:46:29;;;;;;;8.87;4.70;;;36.40;36.00;;;;;;5208451;28;20175;-48
2023/09/07 07:49:00;;;;;;;3.70;3.43;;;36.30;35.20;;;;;;5208605;28;20195;-49
2023/09/07 07:51:30;;;;;;;8.90;4.33;;;36.00;35.40;;;;;;5202345;28;20344;-49
2023/09/07 07:54:01;;;;;;;6.17;4.30;;;35.00;36.40;;;;;;5208857;28;20635;-50
2023/09/07 07:56:31;;;;;;;8.03;3.97;;;35.00;37.10;;;;;;5210620;28;20183;-50
2023/09/07 07:59:03;;;;;;;11.00;4.00;;;34.90;36.70;;;;;;5202454;28;20180;-49
2023/09/07 08:01:33;;;;;;;4.23;3.60;;;34.90;36.90;;;;;;5206892;28;20662;-49
2023/09/07 08:04:04;;;;;;;4.77;4.30;;;34.70;37.00;;;;;;5207285;28;20442;-49
2023/09/07 08:06:35;;;;;;;4.90;3.70;;;34.80;37.10;;;;;;5210282;28;20243;-50
2023/09/07 08:09:06;;;;;;;7.30;4.70;;;35.20;36.60;;;;;;5212333;28;20179;-49
2023/09/07 08:11:38;;;;;;;7.83;4.00;;;35.10;37.00;;;;;;5190068;28;20663;-49
2023/09/07 08:14:08;;;;;;;4.27;3.87;;;34.70;37.60;;;;;;5204723;28;20183;-49
2023/09/07 08:16:39;;;;;;;4.43;3.97;;;33.70;39.70;;;;;;5193455;28;20431;-49
2023/09/07 08:19:10;;;;;;;6.17;4.33;;;32.50;40.10;;;;;;5196764;28;20199;-50
2023/09/07 08:21:42;;;;;;;4.53;4.13;;;31.20;42.80;;;;;;5250292;22;20748;-45
2023/09/07 08:24:13;;;;;;;9.40;4.57;;;30.40;43.80;;;;;;5258511;28;20174;-46
2023/09/07 08:26:43;;;;;;;6.20;4.50;;;29.50;45.10;;;;;;5253742;28;20460;-45
2023/09/07 08:29:14;;;;;;;7.73;4.50;;;28.60;46.00;;;;;;5259614;28;20490;-45
2023/09/07 08:31:45;;;;;;;7.77;4.40;;;27.80;47.50;;;;;;5242396;28;20237;-47
2023/09/07 08:34:15;;;;;;;7.37;4.30;;;27.40;48.50;;;;;;5239243;28;20450;-47
2023/09/07 08:36:47;;;;;;;6.30;4.90;;;26.90;49.20;;;;;;5235771;28;20437;-45
2023/09/07 08:39:20;;;;;;;11.13;4.03;;;26.60;50.10;;;;;;5240252;28;20175;-44
2023/09/07 08:41:51;;;;;;;4.50;3.77;;;26.10;50.40;;;;;;5237961;28;20461;-44
2023/09/07 08:44:23;;;;;;;4.80;4.40;;;25.90;50.60;;;;;;5237088;28;20450;-44
2023/09/07 08:46:53;;;;;;;6.27;4.60;;;25.60;51.20;;;;;;5237738;28;20239;-44
2023/09/07 08:49:26;;;;;;;6.30;3.20;;;25.40;51.70;;;;;;5229650;28;20421;-45
2023/09/07 08:51:59;;;;;;;6.00;4.03;;;25.40;51.90;;;;;;5260181;28;20190;-46
2023/09/07 08:54:31;;;;;;;10.20;3.43;;;25.40;52.40;;;;;;5250424;28;20428;-46
2023/09/07 08:57:04;;;;;;;8.07;4.27;;;25.40;51.90;;;;;;5227998;28;20436;-46
2023/09/07 08:59:36;;;;;;;11.93;3.50;;;25.40;51.10;;;;;;5246252;28;20463;-48
2023/09/07 09:02:10;;;;;;;5.63;3.50;;;25.30;51.50;;;;;;5240821;28;20559;-46
2023/09/07 09:04:41;;;;;;;4.70;3.90;;;25.30;52.10;;;;;;5233465;28;20466;-47
2023/09/07 09:07:12;;;;;;;3.70;3.40;;;25.40;51.40;;;;;;5250706;28;20514;-46
2023/09/07 09:09:42;;;;;;;10.00;3.33;;;25.40;51.80;;;;;;5240315;28;20276;-45
2023/09/07 09:12:13;;;;;;;5.80;4.30;;;25.40;51.30;;;;;;5243772;28;20225;-46
2023/09/07 09:14:44;;;;;;;4.73;4.33;;;25.50;51.60;;;;;;5242122;28;20210;-46
2023/09/07 09:17:15;;;;;;;3.93;3.63;;;25.60;52.00;;;;;;5222604;28;20182;-46
2023/09/07 09:19:46;;;;;;;9.70;3.67;;;25.70;51.50;;;;;;5233322;28;20841;-45
2023/09/07 09:22:17;;;;;;;4.50;4.10;;;25.70;51.80;;;;;;5236630;28;20191;-46
2023/09/07 09:24:48;;;;;;;11.43;4.03;;;25.70;51.40;;;;;;5242742;28;20646;-45
2023/09/07 09:27:20;;;;;;;4.40;4.00;;;25.80;51.80;;;;;;5241953;28;20515;-45
2023/09/07 09:29:51;;;;;;;4.37;4.00;;;25.90;51.60;;;;;;5239173;28;20481;-45
2023/09/07 09:32:21;;;;;;;6.37;3.70;;;25.90;51.90;;;;;;5238865;28;20491;-45
2023/09/07 09:34:52;;;;;;;10.10;3.63;;;25.90;52.10;;;;;;5235638;28;20179;-45
2023/09/07 09:37:23;;;;;;;4.30;3.90;;;25.90;51.70;;;;;;5253279;28;20179;-48
2023/09/07 09:39:55;;;;;;;7.67;4.10;;;26.00;51.30;;;;;;5243988;28;20198;-46
2023/09/07 09:42:27;;;;;;;8.13;3.67;;;25.90;51.40;;;;;;5235546;28;20186;-45
2023/09/07 09:45:00;;;;;;;5.30;3.70;;;25.80;51.70;;;;;;5234674;28;21011;-45
2023/09/07 09:47:31;;;;;;;20.40;3.70;;;25.80;52.40;;;;;;5249549;28;20433;-46
2023/09/07 09:50:06;;;;;;;6.80;4.30;;;25.90;52.10;;;;;;5238595;28;20459;-46
2023/09/07 09:52:39;;;;;;;4.13;3.73;;;26.10;51.70;;;;;;5238216;28;20460;-46
2023/09/07 09:55:12;;;;;;;4.10;3.80;;;26.20;51.20;;;;;;5233098;28;20461;-46
2023/09/07 09:57:43;;;;;;;5.27;3.50;;;26.10;50.50;;;;;;5238538;28;20420;-46
2023/09/07 10:03:00;;;;;;;5.97;3.87;;;26.20;50.60;;;;;;5243162;28;20658;-45
2023/09/07 10:05:32;;;;;;;6.10;3.90;;;26.30;51.00;;;;;;5231538;28;20761;-46
2023/09/07 10:08:11;;;;;;;6.63;4.37;;;26.30;50.80;;;;;;5257419;28;20441;-45
2023/09/07 10:10:47;;;;;;;6.63;4.23;;;26.30;50.70;;;;;;5241356;28;20526;-46
2023/09/07 10:13:32;;;;;;;3.67;3.37;;;26.30;50.00;;;;;;5239611;28;20485;-46
2023/09/07 10:16:13;;;;;;;6.40;4.20;;;26.30;50.50;;;;;;5244466;28;20448;-45
2023/09/07 10:18:44;;;;;;;7.20;3.10;;;26.30;50.30;;;;;;5240994;28;20446;-46
2023/09/07 10:21:15;;;;;;;5.20;3.50;;;26.30;49.80;;;;;;5241460;28;20541;-46
2023/09/07 10:23:45;;;;;;;5.90;3.63;;;26.30;50.00;;;;;;5242203;28;20943;-46
2023/09/07 10:26:17;;;;;;;6.10;3.50;;;26.40;48.90;;;;;;5238530;28;20269;-46
2023/09/07 10:28:59;;;;;;;4.83;3.50;;;26.40;48.30;;;;;;5242800;28;20209;-46
2023/09/07 10:31:30;;;;;;;3.93;3.60;;;26.50;48.50;;;;;;5235740;28;20448;-46
2023/09/07 10:34:13;;;;;;;4.13;3.77;;;26.70;47.70;;;;;;5233468;28;20439;-47
2023/09/07 10:36:45;;;;;;;4.70;3.60;;;26.80;47.50;;;;;;5244550;28;20193;-46
2023/09/07 10:39:15;;;;;;;3.23;3.03;;;26.70;47.50;;;;;;5251967;28;20436;-46
2023/09/07 10:41:46;;;;;;;3.10;2.87;;;26.70;47.00;;;;;;5219435;28;20457;-50
2023/09/07 10:44:25;;;;;;;4.27;3.57;;;26.70;47.30;;;;;;5253657;28;20270;-46
2023/09/07 10:47:00;;;;;;;4.77;4.00;;;26.70;47.30;;;;;;5239065;28;20198;-45
2023/09/07 10:49:30;;;;;;;6.97;3.60;;;26.80;47.50;;;;;;5238026;28;20508;-47
2023/09/07 10:52:04;;;;;;;3.83;3.53;;;26.70;47.50;;;;;;5237706;28;20890;-46
2023/09/07 10:54:35;;;;;;;4.10;2.63;;;26.70;47.40;;;;;;5240545;28;20194;-46
2023/09/07 10:57:10;;;;;;;4.00;3.70;;;26.70;47.10;;;;;;5237826;28;20429;-45
2023/09/07 10:59:47;;;;;;;2.90;2.70;;;26.70;46.60;;;;;;5253381;28;20432;-47
2023/09/07 11:02:17;;;;;;;3.67;3.37;;;26.70;47.00;;;;;;5233852;28;20478;-46
2023/09/07 11:04:48;;;;;;;4.20;3.80;;;26.70;47.10;;;;;;5234325;28;20420;-47
2023/09/07 11:07:19;;;;;;;3.63;3.40;;;26.80;47.20;;;;;;5228200;28;20208;-46
2023/09/07 11:09:52;;;;;;;5.70;3.00;;;27.00;46.70;;;;;;5235618;28;20678;-47
2023/09/07 11:12:22;;;;;;;2.97;2.73;;;27.00;46.50;;;;;;5236109;28;20213;-48
2023/09/07 11:14:54;;;;;;;3.07;2.83;;;27.00;47.20;;;;;;5238074;28;20432;-46
2023/09/07 11:17:28;;;;;;;3.23;2.93;;;27.10;46.60;;;;;;5233852;28;20635;-46
2023/09/07 11:20:04;;;;;;;6.07;3.50;;;27.10;47.10;;;;;;5237445;28;20609;-46
2023/09/07 11:22:38;;;;;;;3.73;3.20;;;27.20;47.00;;;;;;5233914;28;20503;-47
2023/09/07 11:25:08;;;;;;;8.13;3.00;;;27.10;46.40;;;;;;5238594;28;20466;-46
2023/09/07 11:27:39;;;;;;;8.30;3.50;;;27.10;46.90;;;;;;5229273;28;20538;-47
2023/09/07 11:30:11;;;;;;;2.93;2.73;;;27.10;46.50;;;;;;5229531;28;20210;-45
2023/09/07 11:32:42;;;;;;;2.87;2.50;;;27.10;45.80;;;;;;5248701;28;20208;-47
2023/09/07 11:35:13;;;;;;;2.73;2.60;;;27.10;46.20;;;;;;5233096;28;20441;-46
2023/09/07 11:37:51;;;;;;;3.13;2.80;;;27.00;46.30;;;;;;5230683;28;20413;-46
2023/09/07 11:40:22;;;;;;;2.77;2.67;;;27.10;46.50;;;;;;5233414;28;20220;-47
2023/09/07 11:42:53;;;;;;;6.60;3.20;;;27.20;45.00;;;;;;5230429;28;20426;-46
2023/09/07 11:45:24;;;;;;;4.00;3.47;;;27.20;45.20;;;;;;5237280;28;20594;-45
2023/09/07 11:47:54;;;;;;;2.30;2.20;;;27.30;45.10;;;;;;5240376;28;20214;-45
2023/09/07 11:50:25;;;;;;;4.60;2.90;;;27.30;44.90;;;;;;5235522;28;20617;-46
2023/09/07 11:52:56;;;;;;;5.43;2.97;;;27.40;45.10;;;;;;5236889;28;20199;-46
2023/09/07 11:55:27;;;;;;;2.90;2.70;;;27.40;44.70;;;;;;5235718;28;20174;-46
2023/09/07 11:57:58;;;;;;;3.27;2.97;;;27.50;45.10;;;;;;5241010;28;20434;-46
2023/09/07 12:00:30;;;;;;;4.73;2.73;;;27.50;44.80;;;;;;5236794;28;20206;-46
2023/09/07 12:03:01;;;;;;;2.70;2.50;;;27.50;44.50;;;;;;5240323;28;20182;-45
2023/09/07 12:05:32;;;;;;;3.60;3.20;;;27.50;44.50;;;;;;5237118;28;20428;-46
2023/09/07 12:08:04;;;;;;;3.23;2.73;;;27.60;44.60;;;;;;5254113;28;20178;-46
2023/09/07 12:10:34;;;;;;;5.87;2.50;;;27.70;44.10;;;;;;5239847;28;20210;-47
2023/09/07 12:13:05;;;;;;;3.93;3.63;;;27.80;44.10;;;;;;5236989;28;20468;-47
2023/09/07 12:15:35;;;;;;;3.67;3.33;;;27.90;43.90;;;;;;5241515;28;20183;-46
2023/09/07 12:18:07;;;;;;;10.67;4.50;;;27.80;44.20;;;;;;5239419;28;20182;-46
2023/09/07 12:20:37;;;;;;;3.20;3.00;;;27.90;44.70;;;;;;5252988;28;20355;-45
2023/09/07 12:23:08;;;;;;;8.50;2.43;;;27.80;44.30;;;;;;5234653;28;20506;-47
2023/09/07 12:25:39;;;;;;;2.80;2.70;;;27.70;43.50;;;;;;5245388;28;20220;-46
2023/09/07 12:28:09;;;;;;;2.73;2.63;;;27.60;43.40;;;;;;5234575;28;20189;-48
2023/09/07 12:30:44;;;;;;;3.97;3.03;;;27.60;43.80;;;;;;5239516;28;20701;-48
2023/09/07 12:33:14;;;;;;;3.97;3.20;;;27.60;44.70;;;;;;5238534;28;20209;-45
2023/09/07 12:35:45;;;;;;;3.93;3.57;;;27.60;45.10;;;;;;5236579;28;20440;-45
2023/09/07 12:38:17;;;;;;;3.07;2.87;;;27.60;45.40;;;;;;5237564;28;20174;-47
2023/09/07 12:40:48;;;;;;;3.30;3.10;;;27.70;45.30;;;;;;5220782;28;20711;-46
2023/09/07 12:43:19;;;;;;;5.80;3.30;;;27.80;44.70;;;;;;5229227;28;20502;-46
2023/09/07 12:45:50;;;;;;;3.23;3.03;;;27.80;44.50;;;;;;5238389;28;20275;-46
2023/09/07 12:48:21;;;;;;;3.83;3.57;;;27.80;44.00;;;;;;5237098;28;20190;-45
2023/09/07 12:50:51;;;;;;;2.90;2.70;;;27.80;44.40;;;;;;5234850;28;20293;-46
2023/09/07 12:53:25;;;;;;;3.00;2.80;;;27.90;44.20;;;;;;5237082;28;20217;-48
2023/09/07 12:55:56;;;;;;;2.70;2.40;;;27.80;44.10;;;;;;5231198;28;20178;-45
2023/09/07 12:58:26;;;;;;;3.53;2.60;;;27.80;43.90;;;;;;5255969;28;20432;-50
2023/09/07 13:00:57;;;;;;;3.73;3.00;;;27.80;44.20;;;;;;5239174;28;20705;-45
2023/09/07 13:03:27;;;;;;;7.10;3.07;;;27.80;44.00;;;;;;5243363;28;20642;-46
2023/09/07 13:05:58;;;;;;;2.70;2.50;;;27.70;43.60;;;;;;5234558;28;20175;-47
2023/09/07 13:08:29;;;;;;;4.23;2.77;;;27.70;43.40;;;;;;5232878;28;20188;-48